Pitt Meadows, British Columbia

7:59 AM PDT on July 25, 2016 (GMT -0700)
Pitt Meadows Casa de Douglas | | Change Station

Elev 66 ft 49.22 °N, 122.69 °W | Updated 12 minutes ago

Mostly Cloudy
Mostly Cloudy
70.2 °F
Feels Like 71 °F
N
0.0
Wind Variable Wind from West

Today
High -- | Low -- °F
--% Chance of Precip.
Yesterday
High -- | Low -- °F
Precip. -- in
Pressure 30.05 in
Visibility 30.0 miles
Clouds Few 15000 ft
Few 22000 ft
Mostly Cloudy 24000 ft
Heat Index 71 °F
Dew Point 64 °F
Humidity 81%
Rainfall 0.00 in
Snow Depth Not available.
5:34 AM 8:59 PM
Waning Gibbous, 65% visible
METAR CYXX 251400Z 26003KT 30SM FEW150 FEW220 BKN240 17/14 A3005 RMK AC1CC1CI3 CONTRAILS SLP176 DENSITY ALT 300FT
Pressure 30.05 in
Visibility 30.0 miles
Clouds Few 15000 ft
Few 22000 ft
Mostly Cloudy 24000 ft
Heat Index 71 °F
Dew Point 64 °F
Humidity 81%
Rainfall 0.00 in
Snow Depth Not available.
5:34 AM 8:59 PM
Waning Gibbous, 65% visible
METAR CYXX 251400Z 26003KT 30SM FEW150 FEW220 BKN240 17/14 A3005 RMK AC1CC1CI3 CONTRAILS SLP176 DENSITY ALT 300FT

10-Day Weather Forecast

Almanac

Astronomy

Jul. 25, 2016 Rise Set
Actual Time
Civil Twilight
Nautical Twilight
Astronomical Twilight
Moon
Length of Visible Light
Length of Day
Tomorrow will be .
, % of the Moon is Illuminated

Today's Extremes

Country Highs Country Lows

Community

WunderPhotos

Upload Photos

1,927,305 photos uploaded!

WunderBlog® & News

Nearby

Air Quality

  Air Quality AQ Index Pollutant
Not available.

Snow Depth

Station Depth Elevation

Earthquake Activity

City Distance Mag. Time & Date
Minimum magnitude displayed is 2.5.

Coastal Water Temperatures

Place Temperature

Stations

Nearby Weather Stations

Station Location Temp. Windchill Dew Point Humidity Wind Precip. Elev Updated Type
                   

Watches & Warnings

There are currently no watches in effect.